createdAt,value
2022-11-01T00:00:09.808Z,15.3571
2022-11-01T00:01:09.898Z,15.3571
2022-11-01T00:02:09.945Z,15.3571
2022-11-01T00:03:09.913Z,15.3571
2022-11-01T00:04:09.954Z,15.3571
2022-11-01T00:05:09.981Z,15.3571
2022-11-01T00:06:10.015Z,15.3571
2022-11-01T00:07:10.063Z,15.3571
2022-11-01T00:08:10.094Z,15.3571
2022-11-01T00:09:10.117Z,15.3571
2022-11-01T00:10:10.238Z,15.3571
2022-11-01T00:11:10.171Z,15.3571
2022-11-01T00:12:10.196Z,15.3571
2022-11-01T00:13:10.234Z,15.3571
2022-11-01T00:14:10.269Z,15.3571
2022-11-01T00:15:10.305Z,15.3571
2022-11-01T00:16:10.339Z,15.3571
2022-11-01T00:17:10.377Z,15.4286
2022-11-01T00:18:10.411Z,15.4286
2022-11-01T00:19:10.441Z,15.4286
2022-11-01T00:20:10.464Z,15.4286
2022-11-01T00:21:10.497Z,15.4286
2022-11-01T00:22:10.529Z,15.4286
2022-11-01T00:23:10.566Z,15.4286
2022-11-01T00:24:10.600Z,15.4286
2022-11-01T00:25:10.632Z,15.4286
2022-11-01T00:26:10.666Z,15.4286
2022-11-01T00:27:10.701Z,15.4286
2022-11-01T00:28:10.727Z,15.4286
2022-11-01T00:29:10.750Z,15.4286
2022-11-01T00:30:10.810Z,15.4286
2022-11-01T00:31:12.815Z,15.4286
2022-11-01T00:32:10.846Z,15.4286
2022-11-01T00:33:10.881Z,15.4286
2022-11-01T00:34:10.912Z,15.4286
2022-11-01T00:35:10.943Z,15.4286
2022-11-01T00:36:11.002Z,15.4286
2022-11-01T00:37:11.010Z,15.3571
2022-11-01T00:38:11.041Z,15.3571
2022-11-01T00:39:11.077Z,15.3571
2022-11-01T00:40:11.116Z,15.3571
2022-11-01T00:41:11.165Z,15.3571
2022-11-01T00:42:11.183Z,15.2857
2022-11-01T00:43:11.251Z,15.2857
2022-11-01T00:44:11.246Z,15.2857
2022-11-01T00:45:11.279Z,15.2857
2022-11-01T00:46:11.307Z,15.2857
2022-11-01T00:47:11.337Z,15.2143
2022-11-01T00:48:11.369Z,15.2143
2022-11-01T00:49:11.401Z,15.2143
2022-11-01T00:50:11.435Z,15.2143
2022-11-01T00:51:11.460Z,15.1429
2022-11-01T00:52:11.499Z,15.1429
2022-11-01T00:53:11.527Z,15.1429
2022-11-01T00:54:11.560Z,15.1429
2022-11-01T00:55:11.593Z,15.1429
2022-11-01T00:56:11.626Z,15.1429
2022-11-01T00:57:11.656Z,15.0714
2022-11-01T00:58:11.680Z,15.0714
2022-11-01T00:59:11.715Z,15.0714
2022-11-01T01:00:11.751Z,15.0714
2022-11-01T01:01:11.877Z,15.0714
2022-11-01T01:02:11.956Z,15.0714
2022-11-01T01:03:11.851Z,15.0714
2022-11-01T01:04:11.878Z,15
2022-11-01T01:05:11.910Z,15
2022-11-01T01:06:11.937Z,15
2022-11-01T01:07:11.974Z,15
2022-11-01T01:08:12.009Z,15
2022-11-01T01:09:12.039Z,15
2022-11-01T01:10:12.062Z,15
2022-11-01T01:11:12.100Z,15
2022-11-01T01:12:12.130Z,15
2022-11-01T01:13:12.163Z,15
2022-11-01T01:14:12.202Z,15
2022-11-01T01:15:12.234Z,15
2022-11-01T01:16:12.268Z,15
2022-11-01T01:17:12.298Z,15
2022-11-01T01:18:12.329Z,15
2022-11-01T01:19:12.353Z,15
2022-11-01T01:20:12.379Z,14.9286
2022-11-01T01:21:12.413Z,14.9286
2022-11-01T01:22:12.449Z,14.9286
2022-11-01T01:23:12.486Z,14.9286
2022-11-01T01:24:12.522Z,14.9286
2022-11-01T01:25:12.555Z,14.9286
2022-11-01T01:26:12.580Z,14.9286
2022-11-01T01:27:12.618Z,14.9286
2022-11-01T01:28:12.661Z,14.9286
2022-11-01T01:29:12.683Z,14.9286
2022-11-01T01:30:12.717Z,14.9286
2022-11-01T01:31:12.747Z,14.9286
2022-11-01T01:32:12.782Z,14.8571
2022-11-01T01:34:12.845Z,14.8571
2022-11-01T01:35:12.890Z,14.8571
2022-11-01T01:36:12.927Z,14.7857
2022-11-01T01:37:12.961Z,14.7857
2022-11-01T01:38:12.995Z,14.7857
2022-11-01T01:39:13.029Z,14.7857
2022-11-01T01:40:13.060Z,14.7857
2022-11-01T01:41:13.091Z,14.7143
2022-11-01T01:42:13.112Z,14.7143
2022-11-01T01:43:13.159Z,14.7143
2022-11-01T01:44:13.183Z,14.7143
2022-11-01T01:45:13.213Z,14.7143
2022-11-01T01:46:13.247Z,14.7143
2022-11-01T01:47:13.283Z,14.7143
2022-11-01T01:48:13.316Z,14.7143
2022-11-01T01:49:13.341Z,14.7143
2022-11-01T01:50:13.379Z,14.6429
2022-11-01T01:51:13.414Z,14.6429
2022-11-01T01:52:13.451Z,14.6429
2022-11-01T01:53:13.474Z,14.6429
2022-11-01T01:54:13.509Z,14.5714
2022-11-01T01:55:13.539Z,14.5714
2022-11-01T01:56:13.569Z,14.5714
2022-11-01T01:57:13.605Z,14.5714
2022-11-01T01:58:13.635Z,14.5
2022-11-01T01:59:13.678Z,14.5
2022-11-01T02:00:13.701Z,14.5
2022-11-01T02:01:13.840Z,14.5
2022-11-01T02:02:13.965Z,14.5
2022-11-01T02:03:13.801Z,14.5
2022-11-01T02:04:13.826Z,14.5
2022-11-01T02:05:13.861Z,14.5
2022-11-01T02:06:13.963Z,14.5
2022-11-01T02:07:13.929Z,14.5
2022-11-01T02:08:13.975Z,14.4286
2022-11-01T02:09:14.001Z,14.4286
2022-11-01T02:10:14.026Z,14.4286
2022-11-01T02:11:14.059Z,14.4286
2022-11-01T02:12:14.093Z,14.4286
2022-11-01T02:13:14.134Z,14.4286
2022-11-01T02:14:14.159Z,14.4286
2022-11-01T02:15:14.193Z,14.4286
2022-11-01T02:16:14.228Z,14.4286
2022-11-01T02:17:14.254Z,14.4286
2022-11-01T02:18:14.375Z,14.4286
2022-11-01T02:19:14.334Z,14.4286
2022-11-01T02:20:14.366Z,14.4286
2022-11-01T02:21:14.397Z,14.4286
2022-11-01T02:22:14.426Z,14.4286
2022-11-01T02:23:14.455Z,14.3571
2022-11-01T02:24:14.487Z,14.3571
2022-11-01T02:25:14.515Z,14.3571
2022-11-01T02:26:14.544Z,14.3571
2022-11-01T02:27:14.574Z,14.3571
2022-11-01T02:28:14.610Z,14.3571
2022-11-01T02:29:14.647Z,14.3571
2022-11-01T02:30:14.686Z,14.3571
2022-11-01T02:31:14.729Z,14.3571
2022-11-01T02:32:14.741Z,14.3571
2022-11-01T02:33:14.768Z,14.3571
2022-11-01T02:34:14.802Z,14.3571
2022-11-01T02:35:14.838Z,14.3571
2022-11-01T02:36:14.868Z,14.3571
2022-11-01T02:37:14.894Z,14.2857
2022-11-01T02:38:14.925Z,14.2857
2022-11-01T02:40:14.992Z,14.2857
2022-11-01T02:41:15.015Z,14.2857
2022-11-01T02:42:15.048Z,14.2857
2022-11-01T02:43:15.077Z,14.2857
2022-11-01T02:44:15.111Z,14.2857
2022-11-01T02:45:15.143Z,14.2857
2022-11-01T02:46:15.170Z,14.2143
2022-11-01T02:47:15.210Z,14.2143
2022-11-01T02:48:15.242Z,14.2143
2022-11-01T02:49:15.276Z,14.2143
2022-11-01T02:50:15.309Z,14.2143
2022-11-01T02:51:15.369Z,14.2143
2022-11-01T02:52:15.385Z,14.2143
2022-11-01T02:53:15.418Z,14.2143
2022-11-01T02:54:15.444Z,14.2143
2022-11-01T02:55:15.472Z,14.2143
2022-11-01T02:56:15.511Z,14.2143
2022-11-01T02:57:15.541Z,14.2143
2022-11-01T02:58:15.577Z,14.2143
2022-11-01T02:59:15.620Z,14.2143
2022-11-01T03:00:15.656Z,14.2143
2022-11-01T03:01:15.875Z,14.2143
2022-11-01T03:02:15.759Z,14.2143
2022-11-01T03:03:15.750Z,14.2143
2022-11-01T03:04:15.782Z,14.2143
2022-11-01T03:05:15.814Z,14.2143
2022-11-01T03:06:15.842Z,14.2143
2022-11-01T03:07:15.872Z,14.2143
2022-11-01T03:08:15.902Z,14.2143
2022-11-01T03:09:15.937Z,14.1429
2022-11-01T03:10:15.972Z,14.1429
2022-11-01T03:11:16.007Z,14.1429
2022-11-01T03:12:16.069Z,14.1429
2022-11-01T03:13:16.067Z,14.1429
2022-11-01T03:14:16.102Z,14.1429
2022-11-01T03:15:16.128Z,14.1429
2022-11-01T03:16:16.166Z,14.0714
2022-11-01T03:17:16.190Z,14.0714
2022-11-01T03:18:16.223Z,14.0714
2022-11-01T03:19:16.250Z,14.0714
2022-11-01T03:20:16.273Z,14.0714
2022-11-01T03:21:16.307Z,14
2022-11-01T03:22:16.346Z,14
2022-11-01T03:23:16.377Z,14
2022-11-01T03:24:16.410Z,14
2022-11-01T03:25:16.446Z,14
2022-11-01T03:26:16.479Z,14
2022-11-01T03:27:16.506Z,14
2022-11-01T03:28:16.546Z,13.9286
2022-11-01T03:29:16.575Z,13.9286
2022-11-01T03:30:16.610Z,13.9286
2022-11-01T03:31:16.631Z,13.9286
2022-11-01T03:32:16.665Z,13.8571
2022-11-01T03:33:16.697Z,13.8571
2022-11-01T03:34:16.726Z,13.8571
2022-11-01T03:35:16.753Z,13.8571
2022-11-01T03:36:16.783Z,13.7857
2022-11-01T03:37:16.826Z,13.7857
2022-11-01T03:38:16.862Z,13.7143
2022-11-01T03:39:16.898Z,13.7143
2022-11-01T03:40:16.927Z,13.7143
2022-11-01T03:41:16.960Z,13.6429
2022-11-01T03:42:16.992Z,13.6429
2022-11-01T03:43:17.026Z,13.6429
2022-11-01T03:44:17.060Z,13.6429
2022-11-01T03:45:17.178Z,13.5714
2022-11-01T03:46:17.120Z,13.5
2022-11-01T03:47:17.154Z,13.5
2022-11-01T03:48:17.181Z,13.4286
2022-11-01T03:49:17.221Z,13.4286
2022-11-01T03:50:17.258Z,13.4286
2022-11-01T03:51:17.279Z,13.4286
2022-11-01T03:52:17.319Z,13.4286
2022-11-01T03:53:17.355Z,13.4286
2022-11-01T03:54:17.391Z,13.4286
2022-11-01T03:55:17.427Z,13.4286
2022-11-01T03:56:17.462Z,13.4286
2022-11-01T03:57:17.497Z,13.4286
2022-11-01T03:58:17.529Z,13.4286
2022-11-01T03:59:17.561Z,13.4286
2022-11-01T04:00:17.597Z,13.4286
2022-11-01T04:01:17.741Z,13.4286
2022-11-01T04:02:17.675Z,13.4286
2022-11-01T04:03:17.707Z,13.4286
2022-11-01T04:04:17.738Z,13.4286
2022-11-01T04:05:17.776Z,13.4286
2022-11-01T04:06:17.807Z,13.4286
2022-11-01T04:07:17.842Z,13.4286
2022-11-01T04:08:17.885Z,13.4286
2022-11-01T04:09:17.912Z,13.3571
2022-11-01T04:10:17.951Z,13.4286
2022-11-01T04:11:17.985Z,13.4286
2022-11-01T04:12:18.020Z,13.4286
2022-11-01T04:13:18.053Z,13.4286
2022-11-01T04:14:18.078Z,13.4286
2022-11-01T04:15:18.112Z,13.4286
2022-11-01T04:16:18.147Z,13.4286
2022-11-01T04:17:18.185Z,13.4286
2022-11-01T04:18:18.222Z,13.4286
2022-11-01T04:19:18.260Z,13.4286
2022-11-01T04:20:18.293Z,13.4286
2022-11-01T04:21:18.334Z,13.4286
2022-11-01T04:22:20.709Z,13.4286
2022-11-01T04:23:18.393Z,13.4286
2022-11-01T04:24:18.430Z,13.4286
2022-11-01T04:25:18.457Z,13.4286
2022-11-01T04:26:18.495Z,13.4286
2022-11-01T04:27:18.535Z,13.4286
2022-11-01T04:28:18.565Z,13.4286
2022-11-01T04:29:18.598Z,13.4286
2022-11-01T04:30:18.628Z,13.4286
2022-11-01T04:31:18.668Z,13.4286
2022-11-01T04:32:18.703Z,13.3571
2022-11-01T04:33:18.730Z,13.3571
2022-11-01T04:34:18.767Z,13.3571
2022-11-01T04:35:18.809Z,13.4286
2022-11-01T04:36:18.834Z,13.4286
2022-11-01T04:37:18.863Z,13.4286
2022-11-01T04:38:18.892Z,13.4286
2022-11-01T04:39:18.916Z,13.5
2022-11-01T04:40:18.949Z,13.5
2022-11-01T04:41:18.987Z,13.5
2022-11-01T04:42:19.018Z,13.5
2022-11-01T04:43:19.053Z,13.5714
2022-11-01T04:44:19.086Z,13.5714
2022-11-01T04:45:19.126Z,13.5714
2022-11-01T04:46:19.160Z,13.6429
2022-11-01T04:47:19.196Z,13.6429
2022-11-01T04:48:19.231Z,13.6429
2022-11-01T04:49:19.261Z,13.6429
2022-11-01T04:50:19.293Z,13.7143
2022-11-01T04:51:19.326Z,13.7143
2022-11-01T04:52:19.357Z,13.7143
2022-11-01T04:53:19.388Z,13.7857
2022-11-01T04:54:19.422Z,13.7857
2022-11-01T04:55:19.451Z,13.7857
2022-11-01T04:56:19.490Z,13.8571
2022-11-01T04:57:19.518Z,13.8571
2022-11-01T04:58:19.555Z,13.8571
2022-11-01T04:59:19.596Z,13.9286
2022-11-01T05:00:19.632Z,13.9286
2022-11-01T05:01:19.757Z,13.9286
2022-11-01T05:02:19.781Z,13.9286
2022-11-01T05:03:19.739Z,14
2022-11-01T05:04:19.772Z,14
2022-11-01T05:05:19.802Z,14
2022-11-01T05:06:19.835Z,14
2022-11-01T05:07:19.875Z,14
2022-11-01T05:08:19.906Z,14
2022-11-01T05:09:19.939Z,14
2022-11-01T05:10:19.973Z,14
2022-11-01T05:11:20.016Z,14
2022-11-01T05:12:20.053Z,14
2022-11-01T05:13:20.080Z,14
2022-11-01T05:14:20.112Z,14
2022-11-01T05:15:20.146Z,14
2022-11-01T05:16:20.935Z,14
2022-11-01T05:17:20.210Z,14
2022-11-01T05:18:20.246Z,14
2022-11-01T05:19:20.276Z,14
2022-11-01T05:20:20.308Z,14
2022-11-01T05:21:20.344Z,14
2022-11-01T05:22:20.377Z,14
2022-11-01T05:23:20.406Z,14
2022-11-01T05:24:20.439Z,14
2022-11-01T05:25:20.468Z,14
2022-11-01T05:26:20.512Z,14
2022-11-01T05:27:20.535Z,14
2022-11-01T05:28:20.563Z,14
2022-11-01T05:29:24.790Z,14
2022-11-01T05:30:20.618Z,13.9286
2022-11-01T05:31:20.643Z,13.9286
2022-11-01T05:32:20.668Z,13.9286
2022-11-01T05:33:20.711Z,13.9286
2022-11-01T05:34:20.736Z,13.9286
2022-11-01T05:35:20.770Z,13.9286
2022-11-01T05:36:20.803Z,13.8571
2022-11-01T05:37:23.438Z,13.8571
2022-11-01T05:38:20.865Z,13.8571
2022-11-01T05:39:20.902Z,13.8571
2022-11-01T05:40:20.936Z,13.8571
2022-11-01T05:41:20.967Z,13.8571
2022-11-01T05:42:20.996Z,13.8571
2022-11-01T05:43:21.028Z,13.8571
2022-11-01T05:44:21.057Z,13.8571
2022-11-01T05:45:21.081Z,13.8571
2022-11-01T05:46:21.106Z,13.7857
2022-11-01T05:47:21.140Z,13.8571
2022-11-01T05:48:21.175Z,13.7857
2022-11-01T05:49:21.212Z,13.7857
2022-11-01T05:50:21.249Z,13.7857
2022-11-01T05:51:21.273Z,13.7857
2022-11-01T05:52:21.315Z,13.8571
2022-11-01T05:53:21.345Z,13.8571
2022-11-01T05:54:21.381Z,13.8571
2022-11-01T05:55:21.413Z,13.8571
2022-11-01T05:56:21.446Z,13.9286
2022-11-01T05:57:21.473Z,13.9286
2022-11-01T05:58:23.979Z,13.9286
2022-11-01T05:59:21.529Z,13.9286
2022-11-01T06:00:21.555Z,14
2022-11-01T06:01:21.699Z,14
2022-11-01T06:02:21.719Z,14
2022-11-01T06:03:21.648Z,14
2022-11-01T06:04:21.677Z,14
2022-11-01T06:05:21.707Z,14
2022-11-01T06:06:21.739Z,14
2022-11-01T06:07:21.773Z,14
2022-11-01T06:08:21.804Z,14
2022-11-01T06:09:21.835Z,14
2022-11-01T06:10:21.866Z,14
2022-11-01T06:11:21.900Z,14
2022-11-01T06:12:21.933Z,14
2022-11-01T06:13:21.962Z,14
2022-11-01T06:14:22.038Z,14
2022-11-01T06:15:22.029Z,14
2022-11-01T06:16:22.056Z,14
2022-11-01T06:17:22.094Z,14
2022-11-01T06:18:22.122Z,14
2022-11-01T06:19:22.156Z,14
2022-11-01T06:20:22.189Z,14
2022-11-01T06:21:26.065Z,14
2022-11-01T06:22:22.250Z,14
2022-11-01T06:23:22.281Z,14
2022-11-01T06:24:22.308Z,14
2022-11-01T06:25:22.336Z,14
2022-11-01T06:26:22.372Z,14
2022-11-01T06:27:22.405Z,14
2022-11-01T06:28:22.434Z,14
2022-11-01T06:29:22.466Z,14
2022-11-01T06:30:22.494Z,14
2022-11-01T06:31:22.526Z,14
2022-11-01T06:32:22.552Z,14
2022-11-01T06:33:22.583Z,14
2022-11-01T06:34:22.616Z,14
2022-11-01T06:35:22.639Z,14.0714
2022-11-01T06:36:22.675Z,14.0714
2022-11-01T06:37:22.696Z,14.0714
2022-11-01T06:38:22.726Z,14.0714
2022-11-01T06:39:22.760Z,14.0714
2022-11-01T06:40:22.791Z,14.0714
2022-11-01T06:41:22.822Z,14.0714
2022-11-01T06:42:22.861Z,14.0714
2022-11-01T06:43:22.893Z,14.0714
2022-11-01T06:44:22.923Z,14.0714
2022-11-01T06:45:22.964Z,14.0714
2022-11-01T06:46:22.995Z,14.0714
2022-11-01T06:47:23.038Z,14.0714
2022-11-01T06:48:23.052Z,14.0714
2022-11-01T06:49:23.091Z,14.0714
2022-11-01T06:50:23.123Z,14.0714
2022-11-01T06:51:23.144Z,14.0714
2022-11-01T06:52:23.184Z,14.0714
2022-11-01T06:53:23.214Z,14.0714
2022-11-01T06:54:23.251Z,14.1429
2022-11-01T06:55:23.286Z,14.1429
2022-11-01T06:56:23.314Z,14.1429
2022-11-01T06:57:23.347Z,14.1429
2022-11-01T06:58:23.374Z,14.1429
2022-11-01T06:59:23.403Z,14.2143
2022-11-01T07:00:23.433Z,14.2143
2022-11-01T07:01:23.566Z,14.2143
2022-11-01T07:02:28.537Z,14.2857
2022-11-01T07:03:23.526Z,14.2857
2022-11-01T07:04:23.565Z,14.2857
2022-11-01T07:05:23.597Z,14.2857
2022-11-01T07:06:23.633Z,14.2857
2022-11-01T07:07:23.663Z,14.2857
2022-11-01T07:08:23.698Z,14.3571
2022-11-01T07:09:23.722Z,14.3571
2022-11-01T07:10:23.764Z,14.3571
2022-11-01T07:11:28.689Z,14.3571
2022-11-01T07:12:23.824Z,14.3571
2022-11-01T07:13:23.862Z,14.3571
2022-11-01T07:14:23.887Z,14.3571
2022-11-01T07:15:23.919Z,14.4286
2022-11-01T07:16:23.952Z,14.4286
2022-11-01T07:17:23.988Z,14.4286
2022-11-01T07:18:24.019Z,14.4286
2022-11-01T07:19:24.061Z,14.4286
2022-11-01T07:20:24.097Z,14.4286
2022-11-01T07:21:24.128Z,14.4286
2022-11-01T07:22:24.154Z,14.4286
2022-11-01T07:23:24.187Z,14.5
2022-11-01T07:24:24.214Z,14.5
2022-11-01T07:25:24.255Z,14.5
2022-11-01T07:26:24.285Z,14.5
2022-11-01T07:27:24.315Z,14.5
2022-11-01T07:28:24.339Z,14.5
2022-11-01T07:29:24.370Z,14.5
2022-11-01T07:30:24.397Z,14.5714
2022-11-01T07:31:24.423Z,14.5714
2022-11-01T07:32:24.457Z,14.5714
2022-11-01T07:33:24.491Z,14.6429
2022-11-01T07:34:24.528Z,14.6429
2022-11-01T07:35:24.562Z,14.6429
2022-11-01T07:36:24.594Z,14.6429
2022-11-01T07:37:24.674Z,14.6429
2022-11-01T07:38:24.661Z,14.6429
2022-11-01T07:39:24.701Z,14.7143
2022-11-01T07:40:24.724Z,14.7143
2022-11-01T07:41:24.755Z,14.7143
2022-11-01T07:42:24.785Z,14.7143
2022-11-01T07:43:24.822Z,14.7143
2022-11-01T07:44:24.852Z,14.7143
2022-11-01T07:45:24.888Z,14.7143
2022-11-01T07:46:24.915Z,14.7143
2022-11-01T07:47:24.961Z,14.7857
2022-11-01T07:48:24.987Z,14.7857
2022-11-01T07:49:25.027Z,14.7857
2022-11-01T07:50:25.060Z,14.7857
2022-11-01T07:51:25.096Z,14.7857
2022-11-01T07:52:25.124Z,14.7857
2022-11-01T07:53:25.168Z,14.7857
2022-11-01T07:54:25.204Z,14.8571
2022-11-01T07:55:25.222Z,14.8571
2022-11-01T07:56:25.254Z,14.8571
2022-11-01T07:57:25.296Z,14.8571
2022-11-01T07:58:25.326Z,14.8571
2022-11-01T07:59:25.360Z,14.8571
2022-11-01T08:00:25.477Z,14.8571
2022-11-01T08:01:25.565Z,14.8571
2022-11-01T08:02:25.553Z,14.8571
2022-11-01T08:03:25.477Z,14.9286
2022-11-01T08:04:25.510Z,14.9286
2022-11-01T08:05:25.529Z,14.9286
2022-11-01T08:06:25.561Z,14.9286
2022-11-01T08:07:25.596Z,14.9286
2022-11-01T08:08:25.635Z,15
2022-11-01T08:09:25.671Z,14.9286
2022-11-01T08:10:25.693Z,14.9286
2022-11-01T08:11:25.737Z,14.9286
2022-11-01T08:12:25.773Z,14.9286
2022-11-01T08:13:25.808Z,15
2022-11-01T08:14:25.839Z,15
2022-11-01T08:15:25.872Z,15
2022-11-01T08:16:25.904Z,15
2022-11-01T08:17:25.938Z,15
2022-11-01T08:18:25.975Z,15
2022-11-01T08:19:26.002Z,15
2022-11-01T08:20:26.034Z,15
2022-11-01T08:21:26.066Z,15
2022-11-01T08:22:26.101Z,15.0714
2022-11-01T08:23:26.131Z,15.0714
2022-11-01T08:24:26.164Z,15.0714
2022-11-01T08:25:26.196Z,15.0714
2022-11-01T08:26:26.224Z,15.1429
2022-11-01T08:27:27.539Z,15.1429
2022-11-01T08:28:26.285Z,15.2143
2022-11-01T08:29:26.320Z,15.2143
2022-11-01T08:30:26.343Z,15.2857
2022-11-01T08:31:26.393Z,15.2857
2022-11-01T08:32:26.413Z,15.2857
2022-11-01T08:33:26.444Z,15.3571
2022-11-01T08:34:26.480Z,15.3571
2022-11-01T08:35:26.517Z,15.3571
2022-11-01T08:36:26.555Z,15.3571
2022-11-01T08:37:26.594Z,15.3571
2022-11-01T08:38:26.622Z,15.4286
2022-11-01T08:39:26.657Z,15.4286
2022-11-01T08:40:26.686Z,15.4286
2022-11-01T08:41:26.719Z,15.5
2022-11-01T08:42:26.746Z,15.5
2022-11-01T08:43:26.775Z,15.5
2022-11-01T08:44:26.824Z,15.5714
2022-11-01T08:45:26.885Z,15.5714
2022-11-01T08:46:26.876Z,15.5714
2022-11-01T08:47:26.922Z,15.6429
2022-11-01T08:48:26.942Z,15.7143
2022-11-01T08:49:26.982Z,15.7143
2022-11-01T08:50:27.013Z,15.7857
2022-11-01T08:51:27.060Z,15.7857
2022-11-01T08:52:27.100Z,15.8571
2022-11-01T08:53:27.117Z,15.8571
2022-11-01T08:54:27.148Z,15.9286
2022-11-01T08:55:27.245Z,16
2022-11-01T08:56:27.213Z,16
2022-11-01T08:57:27.238Z,16.0714
2022-11-01T08:58:27.277Z,16.0714
2022-11-01T08:59:27.304Z,16.1429
2022-11-01T09:00:27.345Z,16.1429
2022-11-01T09:01:27.536Z,16.2143
2022-11-01T09:02:27.480Z,16.2143
2022-11-01T09:03:27.439Z,16.2857
2022-11-01T09:04:27.470Z,16.2857
2022-11-01T09:05:27.501Z,16.2857
2022-11-01T09:06:29.039Z,16.3571
2022-11-01T09:07:27.570Z,16.3571
2022-11-01T09:08:27.611Z,16.3571
2022-11-01T09:09:27.639Z,16.4286
2022-11-01T09:10:27.672Z,16.4286
2022-11-01T09:11:27.712Z,16.4286
2022-11-01T09:12:27.809Z,16.5
2022-11-01T09:13:27.769Z,16.5
2022-11-01T09:14:27.804Z,16.5714
2022-11-01T09:15:27.836Z,16.5714
2022-11-01T09:16:27.873Z,16.5714
2022-11-01T09:17:27.906Z,16.5714
2022-11-01T09:18:27.947Z,16.6429
2022-11-01T09:19:27.981Z,16.6429
2022-11-01T09:20:28.018Z,16.6429
2022-11-01T09:21:31.554Z,16.6429
2022-11-01T09:22:28.080Z,16.6429
2022-11-01T09:23:28.122Z,16.6429
2022-11-01T09:24:28.143Z,16.6429
2022-11-01T09:25:28.181Z,16.7143
2022-11-01T09:26:28.210Z,16.7143
2022-11-01T09:27:28.237Z,16.7143
2022-11-01T09:28:32.850Z,16.7143
2022-11-01T09:29:28.343Z,16.7143
2022-11-01T09:30:28.325Z,16.7143
2022-11-01T09:31:28.369Z,16.7857
2022-11-01T09:32:28.382Z,16.7857
2022-11-01T09:33:28.410Z,16.7857
2022-11-01T09:34:28.461Z,16.7857
2022-11-01T09:35:28.472Z,16.8571
2022-11-01T09:36:28.502Z,16.8571
2022-11-01T09:37:28.536Z,16.8571
2022-11-01T09:38:28.564Z,16.8571
2022-11-01T09:39:28.589Z,16.8571
2022-11-01T09:40:28.628Z,16.8571
2022-11-01T09:41:28.657Z,16.9286
2022-11-01T09:42:28.688Z,16.9286
2022-11-01T09:43:28.709Z,16.9286
2022-11-01T09:44:28.742Z,16.9286
2022-11-01T09:45:28.771Z,16.9286
2022-11-01T09:46:28.803Z,17
2022-11-01T09:47:28.822Z,17
2022-11-01T09:48:28.858Z,17
2022-11-01T09:49:28.890Z,17
2022-11-01T09:50:28.919Z,17
2022-11-01T09:51:28.955Z,17
2022-11-01T09:52:28.991Z,17
2022-11-01T09:53:29.018Z,17
2022-11-01T09:54:29.052Z,17
2022-11-01T09:55:29.087Z,17
2022-11-01T09:56:30.490Z,17
2022-11-01T09:57:29.146Z,17
2022-11-01T09:58:29.182Z,17
2022-11-01T09:59:29.213Z,17
2022-11-01T10:00:29.251Z,17
2022-11-01T10:01:29.358Z,17
2022-11-01T10:02:29.311Z,17
2022-11-01T10:03:29.347Z,17.0714
2022-11-01T10:04:29.380Z,17.0714
2022-11-01T10:05:29.401Z,17.0714
2022-11-01T10:06:29.441Z,17.0714
2022-11-01T10:07:29.478Z,17.1429
2022-11-01T10:08:29.506Z,17.1429
2022-11-01T10:09:29.539Z,17.1429
2022-11-01T10:10:32.505Z,17.1429
2022-11-01T10:11:29.605Z,17.2143
2022-11-01T10:12:29.628Z,17.2143
2022-11-01T10:13:29.661Z,17.2143
2022-11-01T10:14:29.688Z,17.2143
2022-11-01T10:15:29.714Z,17.2857
2022-11-01T10:16:29.742Z,17.2857
2022-11-01T10:17:29.775Z,17.2857
2022-11-01T10:18:29.818Z,17.2857
2022-11-01T10:19:29.848Z,17.2857
2022-11-01T10:20:29.881Z,17.3571
2022-11-01T10:21:30.031Z,17.3571
2022-11-01T10:22:29.946Z,17.3571
2022-11-01T10:23:29.972Z,17.3571
2022-11-01T10:24:30.009Z,17.4286
2022-11-01T10:25:30.042Z,17.4286
2022-11-01T10:26:30.073Z,17.4286
2022-11-01T10:27:34.567Z,17.4286
2022-11-01T10:28:30.137Z,17.4286
2022-11-01T10:29:30.161Z,17.4286
2022-11-01T10:30:30.194Z,17.5
2022-11-01T10:31:30.226Z,17.5
2022-11-01T10:32:30.258Z,17.5
2022-11-01T10:33:30.283Z,17.5
2022-11-01T10:34:34.944Z,17.5
2022-11-01T10:35:30.336Z,17.4286
2022-11-01T10:36:30.416Z,17.4286
2022-11-01T10:37:30.396Z,17.4286
2022-11-01T10:38:49.531Z,17.4286
2022-11-01T10:39:53.952Z,17.4286
2022-11-01T10:40:30.484Z,17.4286
2022-11-01T10:41:30.515Z,17.4286
2022-11-01T10:42:30.548Z,17.4286
2022-11-01T10:43:30.575Z,17.5
2022-11-01T10:44:30.615Z,17.5
2022-11-01T10:45:30.646Z,17.5
2022-11-01T10:46:30.684Z,17.5
2022-11-01T10:47:30.720Z,17.5
2022-11-01T10:48:30.751Z,17.5
2022-11-01T10:49:40.534Z,17.5
2022-11-01T10:50:30.811Z,17.5
2022-11-01T10:51:30.845Z,17.5
2022-11-01T10:52:30.872Z,17.5
2022-11-01T10:53:30.902Z,17.5
2022-11-01T10:54:30.932Z,17.5
2022-11-01T10:55:30.971Z,17.5
2022-11-01T10:56:30.999Z,17.5714
2022-11-01T10:57:31.035Z,17.5714
2022-11-01T10:58:31.060Z,17.5714
2022-11-01T10:59:31.089Z,17.5714
2022-11-01T11:00:31.118Z,17.6429
2022-11-01T11:01:31.283Z,17.6429
2022-11-01T11:02:31.253Z,17.6429
2022-11-01T11:03:31.280Z,17.7143
2022-11-01T11:04:31.257Z,17.7143
2022-11-01T11:05:31.282Z,17.7143
2022-11-01T11:06:31.324Z,17.7143
2022-11-01T11:07:31.343Z,17.7857
2022-11-01T11:08:31.378Z,17.7857
2022-11-01T11:09:31.398Z,17.7857
2022-11-01T11:10:31.429Z,17.7857
2022-11-01T11:11:31.563Z,17.8571
2022-11-01T11:12:31.489Z,17.8571
2022-11-01T11:13:31.528Z,17.9286
2022-11-01T11:14:31.594Z,17.9286
2022-11-01T11:15:35.391Z,18
2022-11-01T11:16:31.642Z,18
2022-11-01T11:17:31.672Z,18.0714
2022-11-01T11:18:31.698Z,18.1429
2022-11-01T11:19:31.735Z,18.1429
2022-11-01T11:20:31.771Z,18.2143
2022-11-01T11:21:31.809Z,18.2143
2022-11-01T11:22:31.819Z,18.2857
2022-11-01T11:23:31.850Z,18.2857
2022-11-01T11:24:31.887Z,18.3571
2022-11-01T11:25:31.923Z,18.3571
2022-11-01T11:26:37.506Z,18.3571
2022-11-01T11:27:31.979Z,18.3571
2022-11-01T11:28:32.018Z,18.4286
2022-11-01T11:29:32.057Z,18.4286
2022-11-01T11:30:32.087Z,18.4286
2022-11-01T11:31:32.112Z,18.4286
2022-11-01T11:32:32.138Z,18.4286
2022-11-01T11:33:32.176Z,18.4286
2022-11-01T11:34:32.214Z,18.4286
2022-11-01T11:35:32.239Z,18.5
2022-11-01T11:36:32.275Z,18.5
2022-11-01T11:37:32.308Z,18.5
2022-11-01T11:38:32.337Z,18.5
2022-11-01T11:39:32.377Z,18.5
2022-11-01T11:40:32.408Z,18.5
2022-11-01T11:41:32.437Z,18.5
2022-11-01T11:42:32.473Z,18.5
2022-11-01T11:43:32.497Z,18.5
2022-11-01T11:44:32.537Z,18.5
2022-11-01T11:45:32.569Z,18.5
2022-11-01T11:46:32.595Z,18.5
2022-11-01T11:47:32.626Z,18.5
2022-11-01T11:48:32.661Z,18.5
2022-11-01T11:49:32.702Z,18.5
2022-11-01T11:50:32.726Z,18.5
2022-11-01T11:51:32.760Z,18.5
2022-11-01T11:52:36.884Z,18.5
2022-11-01T11:53:32.824Z,18.4286
2022-11-01T11:54:32.853Z,18.4286
2022-11-01T11:55:32.890Z,18.4286
2022-11-01T11:56:32.917Z,18.4286
2022-11-01T11:57:32.950Z,18.4286
2022-11-01T11:58:32.980Z,18.4286
2022-11-01T11:59:33.053Z,18.3571
2022-11-01T12:00:33.052Z,18.3571
2022-11-01T12:01:33.150Z,18.3571
2022-11-01T12:02:33.206Z,18.3571
2022-11-01T12:03:33.142Z,18.3571
2022-11-01T12:04:33.177Z,18.3571
2022-11-01T12:05:33.203Z,18.3571
2022-11-01T12:06:33.241Z,18.2857
2022-11-01T12:07:33.272Z,18.3571
2022-11-01T12:08:33.303Z,18.3571
2022-11-01T12:09:33.327Z,18.3571
2022-11-01T12:10:33.360Z,18.3571
2022-11-01T12:11:33.392Z,18.3571
2022-11-01T12:12:33.422Z,18.3571
2022-11-01T12:13:33.491Z,18.3571
2022-11-01T12:14:33.494Z,18.3571
2022-11-01T12:15:38.311Z,18.3571
2022-11-01T12:16:33.549Z,18.3571
2022-11-01T12:17:33.575Z,18.4286
2022-11-01T12:18:33.603Z,18.4286
2022-11-01T12:19:33.638Z,18.4286
2022-11-01T12:20:33.671Z,18.5
2022-11-01T12:21:33.708Z,18.5
2022-11-01T12:22:33.748Z,18.5
2022-11-01T12:23:33.777Z,18.5714
2022-11-01T12:24:33.808Z,18.5714
2022-11-01T12:25:33.836Z,18.6429
2022-11-01T12:26:33.872Z,18.6429
2022-11-01T12:27:33.907Z,18.6429
2022-11-01T12:28:33.944Z,18.7143
2022-11-01T12:29:33.974Z,18.7143
2022-11-01T12:30:34.006Z,18.7143
2022-11-01T12:31:34.046Z,18.7857